createdAt,value
2019-03-05T00:04:18.425Z,59.56
2019-03-05T00:09:21.683Z,59.58
2019-03-05T00:14:23.272Z,59.53
2019-03-05T00:19:24.853Z,59.52
2019-03-05T00:25:01.216Z,59.45
2019-03-05T00:30:39.310Z,59.44
2019-03-05T00:42:11.227Z,59.52
2019-03-05T00:47:46.013Z,59.55
2019-03-05T00:53:18.222Z,59.50
2019-03-05T00:58:29.883Z,59.49
2019-03-05T01:04:18.660Z,59.52
2019-03-05T01:09:24.442Z,59.48
2019-03-05T01:14:25.984Z,59.44
2019-03-05T01:19:27.593Z,59.74
2019-03-05T01:24:29.227Z,59.77
2019-03-05T01:29:30.901Z,59.73
2019-03-05T01:34:37.616Z,59.70
2019-03-05T01:39:44.309Z,59.62
2019-03-05T01:44:45.870Z,59.47
2019-03-05T01:49:47.521Z,59.51
2019-03-05T01:54:49.126Z,59.41
2019-03-05T01:59:50.705Z,59.40
2019-03-05T02:04:52.281Z,59.31
2019-03-05T02:09:53.867Z,59.34
2019-03-05T02:14:55.632Z,59.37
2019-03-05T02:19:57.228Z,59.46
2019-03-05T02:25:20.646Z,59.47
2019-03-05T02:30:36.370Z,59.51
2019-03-05T02:35:51.155Z,59.53
2019-03-05T02:41:12.054Z,59.49
2019-03-05T02:46:49.353Z,59.51
2019-03-05T02:52:00.638Z,59.62
2019-03-05T02:57:08.342Z,59.63
2019-03-05T03:02:32.661Z,59.74
2019-03-05T03:07:34.218Z,59.85
2019-03-05T03:12:35.800Z,59.92
2019-03-05T03:17:37.457Z,59.99
2019-03-05T03:22:39.027Z,60.08
2019-03-05T03:27:40.584Z,60.21
2019-03-05T03:32:42.181Z,60.28
2019-03-05T03:37:43.820Z,60.37
2019-03-05T03:42:45.514Z,60.37
2019-03-05T03:47:47.217Z,60.45
2019-03-05T03:52:48.788Z,60.51
2019-03-05T03:57:50.471Z,60.62
2019-03-05T04:02:52.960Z,60.64
2019-03-05T04:07:54.620Z,60.66
2019-03-05T04:12:56.291Z,60.72
2019-03-05T04:17:57.956Z,60.72
2019-03-05T04:22:59.635Z,60.71
2019-03-05T04:28:01.304Z,60.75
2019-03-05T04:33:02.965Z,60.75
2019-03-05T04:38:04.546Z,60.75
2019-03-05T04:43:06.138Z,60.80
2019-03-05T04:48:08.006Z,60.83
2019-03-05T04:53:09.616Z,60.75
2019-03-05T04:58:11.218Z,60.67
2019-03-05T05:03:12.813Z,60.65
2019-03-05T05:08:14.362Z,60.54
2019-03-05T05:13:16.051Z,60.40
2019-03-05T05:18:17.620Z,60.25
2019-03-05T05:23:19.177Z,60.19
2019-03-05T05:28:20.769Z,60.17
2019-03-05T05:33:22.475Z,60.07
2019-03-05T05:38:24.047Z,60.09
2019-03-05T05:43:27.951Z,60.08
2019-03-05T05:48:29.616Z,60.00
2019-03-05T05:53:31.199Z,59.92
2019-03-05T05:58:32.765Z,59.93
2019-03-05T06:03:34.347Z,59.78
2019-03-05T06:08:35.937Z,59.75
2019-03-05T06:13:37.530Z,59.62
2019-03-05T06:18:39.100Z,59.62
2019-03-05T06:23:40.655Z,59.56
2019-03-05T06:28:42.289Z,59.59
2019-03-05T06:33:43.893Z,59.66
2019-03-05T06:38:45.455Z,59.49
2019-03-05T06:43:47.055Z,59.31
2019-03-05T06:48:48.644Z,59.17
2019-03-05T06:53:50.260Z,58.85
2019-03-05T06:58:51.825Z,58.71
2019-03-05T07:03:53.427Z,58.40
2019-03-05T07:08:59.789Z,58.64
2019-03-05T07:14:02.985Z,58.87
2019-03-05T07:19:15.504Z,58.98
2019-03-05T07:24:43.190Z,58.94
2019-03-05T07:29:44.865Z,59.19
2019-03-05T07:34:47.485Z,59.05
2019-03-05T07:39:49.207Z,59.11
2019-03-05T07:44:50.809Z,59.15
2019-03-05T07:49:52.474Z,59.23
2019-03-05T07:54:54.067Z,59.32
2019-03-05T07:59:55.670Z,59.12
2019-03-05T08:04:57.402Z,58.73
2019-03-05T08:10:06.084Z,58.60
2019-03-05T08:15:21.239Z,58.44
2019-03-05T08:20:22.930Z,58.21
2019-03-05T08:25:24.524Z,58.05
2019-03-05T08:30:26.072Z,58.66
2019-03-05T08:35:27.616Z,58.85
2019-03-05T08:40:29.176Z,58.74
2019-03-05T08:45:30.974Z,58.58
2019-03-05T08:50:32.693Z,59.07
2019-03-05T08:55:34.590Z,59.35
2019-03-05T09:00:36.293Z,59.44
2019-03-05T09:05:37.946Z,59.23
2019-03-05T09:10:39.599Z,58.86
2019-03-05T09:15:41.166Z,58.45
2019-03-05T09:20:42.755Z,58.35
2019-03-05T09:25:44.450Z,58.04
2019-03-05T09:30:46.042Z,57.79
2019-03-05T09:35:47.715Z,58.13
2019-03-05T09:40:49.478Z,58.27
2019-03-05T09:45:51.119Z,58.06
2019-03-05T09:50:52.671Z,58.14
2019-03-05T09:55:55.026Z,58.29
2019-03-05T10:00:56.884Z,58.40
2019-03-05T10:05:58.460Z,57.82
2019-03-05T10:11:00.127Z,56.94
2019-03-05T10:16:01.816Z,56.70
2019-03-05T10:21:03.641Z,56.99
2019-03-05T10:26:05.305Z,56.68
2019-03-05T10:31:06.996Z,56.91
2019-03-05T10:36:08.658Z,56.92
2019-03-05T10:41:10.334Z,57.14
2019-03-05T10:46:12.033Z,56.91
2019-03-05T10:51:13.684Z,57.13
2019-03-05T10:56:15.437Z,57.26
2019-03-05T11:01:17.107Z,56.86
2019-03-05T11:06:18.825Z,56.93
2019-03-05T11:11:20.637Z,56.60
2019-03-05T11:16:30.364Z,56.48
2019-03-05T11:21:25.996Z,56.84
2019-03-05T11:26:27.666Z,57.29
2019-03-05T11:31:29.248Z,57.16
2019-03-05T11:36:30.996Z,56.62
2019-03-05T11:41:32.629Z,56.43
2019-03-05T11:46:34.417Z,55.99
2019-03-05T11:51:36.136Z,55.76
2019-03-05T11:56:37.694Z,56.45
2019-03-05T12:01:42.858Z,56.51
2019-03-05T12:06:44.497Z,56.50
2019-03-05T12:11:46.072Z,56.95
2019-03-05T12:16:47.849Z,57.10
2019-03-05T12:21:49.756Z,56.94
2019-03-05T12:26:51.691Z,56.77
2019-03-05T12:31:53.610Z,56.84
2019-03-05T12:36:55.486Z,56.72
2019-03-05T12:41:57.298Z,56.73
2019-03-05T12:47:02.031Z,57.43
2019-03-05T12:52:03.727Z,57.21
2019-03-05T12:57:05.416Z,57.33
2019-03-05T13:02:07.187Z,57.64
2019-03-05T13:07:08.757Z,58.38
2019-03-05T13:12:10.442Z,58.20
2019-03-05T13:17:12.119Z,58.29
2019-03-05T13:22:13.689Z,58.63
2019-03-05T13:27:18.869Z,59.92
2019-03-05T13:32:20.824Z,58.73
2019-03-05T13:37:24.884Z,50.01
2019-03-05T13:42:29.042Z,47.92
2019-03-05T13:47:29.658Z,48.38
2019-03-05T13:53:14.536Z,46.36
2019-03-05T13:58:51.935Z,48.63
2019-03-05T14:03:58.131Z,53.82
2019-03-05T14:09:15.535Z,49.60
2019-03-05T14:14:21.667Z,49.88
2019-03-05T14:19:23.333Z,54.57
2019-03-05T14:24:25.137Z,52.34
2019-03-05T14:29:29.266Z,49.03
2019-03-05T14:34:30.435Z,52.37
2019-03-05T14:39:33.727Z,54.87
2019-03-05T14:44:40.124Z,54.09
2019-03-05T14:49:39.990Z,55.21
2019-03-05T14:54:41.655Z,56.73
2019-03-05T14:59:43.332Z,56.83
2019-03-05T15:04:44.994Z,57.12
2019-03-05T15:09:46.740Z,56.92
2019-03-05T15:14:48.280Z,56.29
2019-03-05T15:19:50.017Z,56.59
2019-03-05T15:24:51.747Z,56.38
2019-03-05T15:29:53.295Z,56.02
2019-03-05T15:34:55.235Z,56.86
2019-03-05T15:39:59.260Z,57.75
2019-03-05T15:45:02.707Z,57.90
2019-03-05T15:50:10.411Z,57.79
2019-03-05T15:55:12.501Z,58.20
2019-03-05T16:00:16.927Z,58.47
2019-03-05T16:05:20.762Z,57.64
2019-03-05T16:10:22.374Z,56.25
2019-03-05T16:15:24.035Z,56.67
2019-03-05T16:20:26.094Z,57.49
2019-03-05T16:25:28.892Z,57.88
2019-03-05T16:30:49.157Z,58.37
2019-03-05T16:36:16.686Z,58.52
2019-03-05T16:41:29.724Z,58.43
2019-03-05T16:46:51.242Z,58.39
2019-03-05T16:52:10.415Z,58.32
2019-03-05T16:57:31.785Z,58.50
2019-03-05T17:02:55.612Z,58.56
2019-03-05T17:08:16.783Z,58.41
2019-03-05T17:13:18.835Z,58.29
2019-03-05T17:18:20.589Z,58.52
2019-03-05T17:23:22.297Z,58.46
2019-03-05T17:28:23.923Z,58.59
2019-03-05T17:33:25.664Z,58.69
2019-03-05T17:38:27.534Z,58.83
2019-03-05T17:43:29.770Z,58.82
2019-03-05T17:48:31.551Z,58.78
2019-03-05T17:53:33.155Z,58.81
2019-03-05T17:58:34.748Z,58.80
2019-03-05T18:03:36.502Z,58.80
2019-03-05T18:08:39.515Z,58.83
2019-03-05T18:13:41.288Z,58.71
2019-03-05T18:18:43.193Z,58.72
2019-03-05T18:23:45.099Z,58.81
2019-03-05T18:28:47.283Z,58.80
2019-03-05T18:33:49.419Z,58.87
2019-03-05T18:38:51.616Z,58.60
2019-03-05T18:43:53.330Z,58.35
2019-03-05T18:48:54.944Z,58.33
2019-03-05T18:53:56.764Z,58.36
2019-03-05T18:58:58.564Z,58.30
2019-03-05T19:04:00.313Z,58.28
2019-03-05T19:09:03.454Z,58.32
2019-03-05T19:14:05.266Z,58.33
2019-03-05T19:19:07.004Z,58.38
2019-03-05T19:24:08.691Z,58.37
2019-03-05T19:29:10.690Z,58.36
2019-03-05T19:34:12.456Z,58.31
2019-03-05T19:39:14.488Z,58.28
2019-03-05T19:44:16.544Z,58.25
2019-03-05T19:49:18.309Z,58.25
2019-03-05T19:54:20.041Z,58.26
2019-03-05T19:59:21.901Z,58.29
2019-03-05T20:04:23.693Z,58.37
2019-03-05T20:09:25.443Z,58.43
2019-03-05T20:14:27.223Z,58.50
2019-03-05T20:19:28.833Z,58.61
2019-03-05T20:24:30.503Z,58.74
2019-03-05T20:29:32.111Z,58.85
2019-03-05T20:34:34.034Z,59.10
2019-03-05T20:39:35.927Z,59.37
2019-03-05T20:44:37.680Z,59.51
2019-03-05T20:49:39.756Z,59.51
2019-03-05T20:54:44.403Z,59.41
2019-03-05T20:59:46.086Z,59.47
2019-03-05T21:04:47.801Z,59.58
2019-03-05T21:09:49.412Z,59.67
2019-03-05T21:14:50.975Z,59.79
2019-03-05T21:19:52.900Z,59.86
2019-03-05T21:24:54.473Z,59.99
2019-03-05T21:29:56.132Z,60.00
2019-03-05T21:34:57.723Z,60.12
2019-03-05T21:39:59.289Z,60.19
2019-03-05T21:45:00.858Z,60.32
2019-03-05T21:50:03.546Z,60.35
2019-03-05T21:55:06.056Z,60.39
2019-03-05T22:00:13.875Z,60.50
2019-03-05T22:05:15.674Z,60.55
2019-03-05T22:10:18.023Z,60.61
2019-03-05T22:15:19.722Z,60.73
2019-03-05T22:20:21.884Z,60.80
2019-03-05T22:25:23.707Z,60.92
2019-03-05T22:30:26.150Z,60.97
2019-03-05T22:35:27.864Z,61.28
2019-03-05T22:40:29.435Z,61.45
2019-03-05T22:45:31.262Z,61.51
2019-03-05T22:50:32.835Z,61.72
2019-03-05T22:55:34.425Z,61.74
2019-03-05T23:00:57.705Z,61.73
2019-03-05T23:06:00.278Z,61.71
2019-03-05T23:11:01.843Z,61.87
2019-03-05T23:16:03.812Z,61.81
2019-03-05T23:21:05.479Z,61.89
2019-03-05T23:26:07.150Z,61.91
2019-03-05T23:31:08.927Z,62.03
2019-03-05T23:36:10.620Z,62.08
2019-03-05T23:41:13.114Z,62.22
2019-03-05T23:46:14.809Z,62.18
2019-03-05T23:51:16.674Z,62.23
2019-03-05T23:56:18.449Z,62.36
